createdAt,value
2019-04-10T00:01:42.524Z,6.25
2019-04-10T00:04:14.655Z,5.50
2019-04-10T00:06:44.304Z,5.00
2019-04-10T00:09:14.800Z,5.00
2019-04-10T00:11:45.136Z,5.15
2019-04-10T00:14:15.008Z,5.72
2019-04-10T00:16:45.158Z,5.97
2019-04-10T00:19:15.037Z,6.47
2019-04-10T00:21:45.225Z,6.28
2019-04-10T00:24:15.545Z,5.37
2019-04-10T00:26:45.914Z,7.37
2019-04-10T00:29:16.188Z,6.22
2019-04-10T00:31:49.096Z,6.22
2019-04-10T00:34:18.885Z,5.60
2019-04-10T00:36:49.069Z,6.00
2019-04-10T00:39:18.704Z,5.72
2019-04-10T00:41:48.399Z,5.70
2019-04-10T00:44:17.913Z,6.22
2019-04-10T00:46:48.591Z,6.22
2019-04-10T00:49:19.552Z,5.78
2019-04-10T00:51:49.993Z,6.00
2019-04-10T00:54:20.320Z,6.00
2019-04-10T00:56:50.621Z,5.67
2019-04-10T00:59:20.299Z,6.33
2019-04-10T01:01:50.028Z,6.45
2019-04-10T01:04:20.348Z,6.35
2019-04-10T01:06:52.515Z,6.25
2019-04-10T01:09:22.258Z,6.10
2019-04-10T01:11:52.143Z,6.25
2019-04-10T01:14:21.653Z,5.95
2019-04-10T01:16:51.505Z,6.40
2019-04-10T01:19:21.303Z,6.37
2019-04-10T01:21:50.830Z,6.70
2019-04-10T01:24:20.361Z,6.60
2019-04-10T01:26:49.948Z,5.97
2019-04-10T01:29:19.724Z,6.58
2019-04-10T01:31:51.133Z,7.90
2019-04-10T01:34:21.087Z,6.97
2019-04-10T01:36:51.007Z,6.37
2019-04-10T01:39:28.635Z,6.95
2019-04-10T01:41:58.502Z,6.50
2019-04-10T01:44:28.896Z,7.10
2019-04-10T01:46:59.828Z,7.78
2019-04-10T01:49:29.493Z,7.28
2019-04-10T01:51:59.493Z,7.65
2019-04-10T01:54:29.379Z,8.30
2019-04-10T01:56:59.722Z,7.33
2019-04-10T01:59:32.128Z,7.10
2019-04-10T02:02:07.202Z,7.50
2019-04-10T02:04:37.037Z,7.75
2019-04-10T02:07:08.176Z,7.37
2019-04-10T02:09:37.767Z,7.12
2019-04-10T02:12:07.346Z,7.70
2019-04-10T02:14:36.879Z,6.90
2019-04-10T02:17:06.557Z,6.67
2019-04-10T02:19:36.464Z,6.97
2019-04-10T02:22:06.503Z,7.80
2019-04-10T02:24:37.201Z,7.37
2019-04-10T02:27:07.796Z,8.03
2019-04-10T02:29:37.833Z,8.60
2019-04-10T02:32:08.046Z,7.87
2019-04-10T02:34:39.255Z,6.78
2019-04-10T02:37:10.848Z,7.62
2019-04-10T02:39:47.677Z,7.72
2019-04-10T02:42:18.657Z,7.35
2019-04-10T02:44:50.418Z,7.33
2019-04-10T02:47:21.120Z,6.87
2019-04-10T02:49:52.115Z,8.15
2019-04-10T02:52:22.619Z,8.10
2019-04-10T02:54:53.735Z,7.30
2019-04-10T02:57:25.315Z,7.47
2019-04-10T02:59:55.940Z,7.30
2019-04-10T03:02:28.424Z,8.10
2019-04-10T03:04:59.372Z,7.30
2019-04-10T03:07:29.156Z,8.05
2019-04-10T03:10:08.895Z,7.37
2019-04-10T03:12:32.330Z,7.40
2019-04-10T03:15:05.565Z,7.85
2019-04-10T03:17:36.628Z,8.03
2019-04-10T03:20:07.958Z,7.67
2019-04-10T03:22:37.776Z,7.42
2019-04-10T03:25:08.897Z,7.40
2019-04-10T03:27:38.764Z,7.45
2019-04-10T03:30:12.114Z,7.70
2019-04-10T03:32:44.474Z,9.08
2019-04-10T03:35:16.737Z,8.88
2019-04-10T03:37:46.663Z,8.70
2019-04-10T03:40:17.407Z,8.53
2019-04-10T03:42:47.476Z,8.15
2019-04-10T03:45:17.904Z,7.67
2019-04-10T03:47:47.547Z,8.48
2019-04-10T03:50:18.209Z,8.50
2019-04-10T03:52:48.217Z,7.78
2019-04-10T03:55:18.815Z,8.55
2019-04-10T03:57:49.106Z,8.00
2019-04-10T04:00:19.714Z,8.75
2019-04-10T04:02:50.517Z,7.67
2019-04-10T04:05:22.404Z,8.10
2019-04-10T04:07:54.988Z,8.40
2019-04-10T04:10:24.785Z,11.10
2019-04-10T04:12:55.109Z,8.48
2019-04-10T04:15:24.776Z,9.63
2019-04-10T04:17:54.768Z,7.83
2019-04-10T04:20:26.623Z,8.78
2019-04-10T04:22:57.078Z,9.35
2019-04-10T04:25:26.662Z,9.20
2019-04-10T04:27:56.350Z,8.43
2019-04-10T04:30:26.153Z,8.78
2019-04-10T04:32:56.059Z,9.18
2019-04-10T04:35:25.775Z,7.78
2019-04-10T04:37:56.189Z,9.00
2019-04-10T04:40:25.945Z,9.15
2019-04-10T04:42:55.811Z,9.40
2019-04-10T04:45:25.666Z,9.90
2019-04-10T04:47:55.647Z,9.83
2019-04-10T04:50:25.320Z,9.08
2019-04-10T04:52:54.827Z,8.65
2019-04-10T04:55:24.398Z,9.45
2019-04-10T04:57:54.015Z,9.50
2019-04-10T05:00:23.727Z,10.30
2019-04-10T05:02:53.671Z,9.93
2019-04-10T05:05:23.661Z,8.95
2019-04-10T05:07:59.367Z,10.15
2019-04-10T05:10:25.204Z,9.75
2019-04-10T05:12:59.944Z,10.00
2019-04-10T05:15:31.116Z,9.03
2019-04-10T05:18:01.889Z,10.20
2019-04-10T05:20:41.278Z,11.05
2019-04-10T05:23:04.115Z,10.35
2019-04-10T05:25:34.507Z,10.28
2019-04-10T05:28:05.836Z,9.90
2019-04-10T05:30:35.738Z,10.20
2019-04-10T05:33:06.287Z,10.08
2019-04-10T05:35:37.291Z,9.35
2019-04-10T05:38:07.947Z,11.38
2019-04-10T05:40:37.737Z,9.78
2019-04-10T05:43:07.387Z,9.40
2019-04-10T05:45:37.813Z,9.65
2019-04-10T05:48:07.494Z,10.68
2019-04-10T05:50:37.836Z,9.55
2019-04-10T05:53:07.832Z,9.90
2019-04-10T05:55:37.325Z,9.60
2019-04-10T05:58:07.752Z,9.90
2019-04-10T06:00:37.290Z,9.95
2019-04-10T06:03:07.103Z,9.55
2019-04-10T06:05:40.934Z,10.68
2019-04-10T06:08:10.452Z,9.93
2019-04-10T06:10:39.976Z,10.40
2019-04-10T06:13:10.884Z,10.18
2019-04-10T06:15:41.306Z,10.30
2019-04-10T06:18:13.924Z,10.23
2019-04-10T06:20:45.276Z,10.70
2019-04-10T06:23:15.198Z,10.25
2019-04-10T06:25:45.766Z,9.70
2019-04-10T06:28:16.989Z,11.45
2019-04-10T06:30:46.668Z,10.43
2019-04-10T06:33:16.208Z,9.75
2019-04-10T06:35:46.882Z,14.30
2019-04-10T06:38:16.924Z,10.93
2019-04-10T06:40:46.738Z,10.43
2019-04-10T06:43:16.940Z,10.60
2019-04-10T06:45:46.783Z,10.23
2019-04-10T06:48:17.192Z,10.40
2019-04-10T06:50:48.718Z,10.50
2019-04-10T06:53:18.691Z,10.97
2019-04-10T06:55:48.877Z,10.30
2019-04-10T06:58:18.645Z,10.07
2019-04-10T07:00:52.927Z,10.40
2019-04-10T07:03:19.583Z,8.90
2019-04-10T07:06:03.272Z,9.77
2019-04-10T07:08:23.933Z,10.07
2019-04-10T07:11:01.382Z,10.27
2019-04-10T07:13:26.011Z,7.97
2019-04-10T07:15:58.159Z,9.17
2019-04-10T07:18:27.284Z,8.03
2019-04-10T07:21:01.080Z,8.77
2019-04-10T07:23:30.800Z,8.10
2019-04-10T07:26:01.730Z,8.67
2019-04-10T07:28:33.549Z,7.93
2019-04-10T07:31:07.221Z,8.70
2019-04-10T07:33:35.187Z,7.70
2019-04-10T07:36:08.953Z,7.60
2019-04-10T07:38:37.102Z,8.40
2019-04-10T07:41:13.692Z,8.40
2019-04-10T07:43:39.065Z,8.67
2019-04-10T07:46:08.726Z,8.40
2019-04-10T07:48:38.256Z,8.13
2019-04-10T07:51:09.009Z,7.30
2019-04-10T07:53:39.456Z,6.77
2019-04-10T07:56:14.873Z,7.47
2019-04-10T07:58:43.970Z,7.30
2019-04-10T08:01:14.095Z,6.60
2019-04-10T08:03:43.919Z,7.50
2019-04-10T08:06:13.564Z,6.67
2019-04-10T08:08:43.083Z,7.80
2019-04-10T08:11:13.307Z,5.70
2019-04-10T08:13:42.863Z,6.23
2019-04-10T08:16:12.370Z,6.03
2019-04-10T08:18:41.874Z,6.50
2019-04-10T08:21:15.526Z,6.13
2019-04-10T08:23:46.434Z,5.23
2019-04-10T08:26:16.323Z,5.13
2019-04-10T08:28:46.032Z,4.17
2019-04-10T08:31:15.645Z,5.03
2019-04-10T08:33:46.154Z,5.30
2019-04-10T08:36:16.747Z,4.80
2019-04-10T08:38:46.695Z,4.80
2019-04-10T08:41:17.165Z,5.53
2019-04-10T08:43:48.107Z,4.67
2019-04-10T08:46:18.295Z,5.07
2019-04-10T08:48:48.013Z,4.73
2019-04-10T08:51:21.440Z,4.50
2019-04-10T08:53:54.111Z,5.33
2019-04-10T08:56:23.022Z,3.53
2019-04-10T08:58:53.120Z,3.13
2019-04-10T09:01:25.143Z,3.33
2019-04-10T09:03:57.374Z,3.60
2019-04-10T09:06:29.442Z,3.30
2019-04-10T09:08:59.451Z,4.03
2019-04-10T09:11:30.159Z,4.17
2019-04-10T09:14:01.054Z,4.33
2019-04-10T09:16:31.064Z,3.97
2019-04-10T09:19:01.382Z,4.30
2019-04-10T09:21:35.155Z,3.90
2019-04-10T09:24:05.283Z,3.77
2019-04-10T09:26:36.105Z,3.70
2019-04-10T09:29:08.707Z,3.20
2019-04-10T09:31:39.930Z,3.03
2019-04-10T09:34:10.098Z,2.90
2019-04-10T09:36:40.373Z,3.50
2019-04-10T09:39:11.506Z,5.00
2019-04-10T09:41:41.871Z,2.83
2019-04-10T09:44:12.377Z,3.40
2019-04-10T09:46:42.861Z,3.20
2019-04-10T09:49:12.989Z,3.10
2019-04-10T09:51:43.504Z,2.23
2019-04-10T09:54:13.538Z,3.20
2019-04-10T09:56:44.204Z,2.80
2019-04-10T09:59:14.264Z,2.83
2019-04-10T10:01:44.500Z,3.30
2019-04-10T10:04:15.345Z,3.43
2019-04-10T10:06:49.363Z,3.50
2019-04-10T10:09:19.672Z,3.30
2019-04-10T10:11:49.691Z,3.30
2019-04-10T10:14:19.309Z,3.00
2019-04-10T10:16:50.469Z,3.23
2019-04-10T10:19:21.649Z,3.30
2019-04-10T10:21:52.562Z,2.90
2019-04-10T10:24:22.679Z,3.90
2019-04-10T10:26:53.471Z,3.60
2019-04-10T10:29:23.809Z,3.87
2019-04-10T10:31:54.004Z,3.77
2019-04-10T10:34:26.042Z,3.90
2019-04-10T10:36:57.880Z,3.40
2019-04-10T10:39:30.685Z,3.73
2019-04-10T10:41:59.593Z,3.80
2019-04-10T10:44:30.135Z,3.30
2019-04-10T10:47:00.497Z,4.03
2019-04-10T10:49:30.661Z,3.90
2019-04-10T10:52:03.544Z,3.80
2019-04-10T10:54:34.692Z,3.87
2019-04-10T10:57:05.086Z,3.60
2019-04-10T10:59:35.567Z,3.73
2019-04-10T11:02:06.428Z,3.80
2019-04-10T11:04:36.218Z,3.70
2019-04-10T11:07:06.963Z,3.50
2019-04-10T11:09:40.117Z,3.50
2019-04-10T11:12:10.141Z,3.47
2019-04-10T11:14:39.681Z,3.37
2019-04-10T11:17:09.414Z,3.60
2019-04-10T11:19:39.494Z,3.47
2019-04-10T11:22:14.304Z,3.57
2019-04-10T11:24:44.532Z,4.10
2019-04-10T11:27:14.377Z,3.53
2019-04-10T11:29:45.446Z,3.53
2019-04-10T11:32:36.628Z,2.87
2019-04-10T11:35:08.732Z,3.27
2019-04-10T11:37:44.343Z,3.60
2019-04-10T11:40:12.201Z,3.90
2019-04-10T11:42:42.965Z,4.10
2019-04-10T11:45:18.163Z,4.20
2019-04-10T11:47:48.242Z,3.70
2019-04-10T11:50:18.905Z,3.80
2019-04-10T11:52:53.190Z,3.57
2019-04-10T11:55:22.012Z,3.97
2019-04-10T11:57:51.757Z,3.10
2019-04-10T12:00:47.764Z,3.40
2019-04-10T12:03:12.968Z,3.37
2019-04-10T12:05:46.110Z,4.10
2019-04-10T12:08:40.182Z,3.60
2019-04-10T12:13:18.380Z,3.67
2019-04-10T12:15:48.930Z,3.50
2019-04-10T12:18:18.806Z,3.93
2019-04-10T12:20:49.258Z,3.80
2019-04-10T12:23:19.233Z,3.50
2019-04-10T12:25:49.391Z,4.40
2019-04-10T12:28:20.121Z,3.90
2019-04-10T12:30:51.212Z,4.50
2019-04-10T12:33:21.364Z,4.20
2019-04-10T12:35:51.053Z,4.20
2019-04-10T12:38:20.788Z,4.23
2019-04-10T12:40:50.931Z,4.50
2019-04-10T12:43:20.947Z,4.20
2019-04-10T12:45:50.862Z,4.40
2019-04-10T12:48:20.822Z,3.70
2019-04-10T12:50:50.891Z,4.20
2019-04-10T12:53:21.251Z,4.37
2019-04-10T12:55:53.592Z,4.23
2019-04-10T12:58:23.676Z,3.90
2019-04-10T13:00:53.200Z,4.27
2019-04-10T13:03:23.098Z,4.03
2019-04-10T13:05:53.601Z,4.43
2019-04-10T13:08:34.981Z,5.30
2019-04-10T13:10:56.114Z,4.40
2019-04-10T13:13:26.168Z,4.73
2019-04-10T13:15:56.784Z,4.20
2019-04-10T13:18:26.345Z,4.40
2019-04-10T13:20:55.902Z,4.37
2019-04-10T13:23:25.648Z,4.47
2019-04-10T13:26:01.014Z,4.00
2019-04-10T13:28:29.762Z,4.27
2019-04-10T13:30:59.572Z,5.20
2019-04-10T13:33:29.245Z,4.33
2019-04-10T13:35:59.543Z,4.37
2019-04-10T13:38:33.505Z,4.50
2019-04-10T13:41:03.965Z,4.40
2019-04-10T13:43:34.020Z,4.50
2019-04-10T13:46:04.592Z,4.07
2019-04-10T13:48:35.504Z,4.50
2019-04-10T13:51:05.419Z,4.90
2019-04-10T13:53:34.995Z,4.50
2019-04-10T13:56:06.612Z,4.80
2019-04-10T13:58:36.342Z,4.40
2019-04-10T14:01:09.337Z,4.43
2019-04-10T14:03:41.523Z,4.67
2019-04-10T14:06:11.592Z,4.00
2019-04-10T14:09:01.787Z,4.30
2019-04-10T14:11:13.260Z,4.10
2019-04-10T14:13:46.255Z,3.87
2019-04-10T14:16:16.944Z,3.97
2019-04-10T14:18:46.930Z,4.33
2019-04-10T14:21:17.302Z,3.97
2019-04-10T14:23:47.258Z,4.70
2019-04-10T14:26:42.128Z,4.40
2019-04-10T14:29:05.201Z,4.40
2019-04-10T14:31:36.776Z,4.23
2019-04-10T14:34:06.664Z,4.33
2019-04-10T14:36:36.676Z,4.80
2019-04-10T14:39:18.411Z,4.27
2019-04-10T14:41:46.411Z,5.00
2019-04-10T14:44:16.255Z,4.53
2019-04-10T14:46:49.646Z,5.27
2019-04-10T14:49:19.514Z,4.17
2019-04-10T14:51:49.134Z,4.43
2019-04-10T14:54:19.621Z,4.13
2019-04-10T14:56:50.415Z,4.70
2019-04-10T14:59:20.312Z,3.80
2019-04-10T15:01:51.260Z,4.70
2019-04-10T15:04:21.403Z,4.27
2019-04-10T15:06:51.162Z,4.13
2019-04-10T15:09:25.951Z,4.73
2019-04-10T15:11:53.872Z,4.03
2019-04-10T15:14:23.824Z,4.03
2019-04-10T15:16:59.964Z,3.80
2019-04-10T15:19:26.886Z,4.47
2019-04-10T15:21:56.758Z,4.10
2019-04-10T15:24:26.396Z,4.17
2019-04-10T15:26:57.092Z,4.43
2019-04-10T15:29:26.762Z,4.53
2019-04-10T15:31:57.625Z,4.20
2019-04-10T15:34:28.257Z,4.40
2019-04-10T15:36:58.523Z,4.07
2019-04-10T15:39:33.913Z,4.83
2019-04-10T15:41:59.711Z,4.57
2019-04-10T15:44:30.098Z,4.60
2019-04-10T15:47:12.600Z,4.80
2019-04-10T15:49:32.435Z,5.10
2019-04-10T15:52:02.210Z,4.37
2019-04-10T15:54:32.149Z,4.60
2019-04-10T15:57:02.674Z,5.20
2019-04-10T15:59:32.556Z,4.87
2019-04-10T16:02:05.719Z,4.77
2019-04-10T16:04:35.867Z,4.80
2019-04-10T16:07:06.348Z,4.20
2019-04-10T16:09:45.469Z,4.50
2019-04-10T16:12:11.711Z,4.30
2019-04-10T16:14:41.239Z,5.20
2019-04-10T16:17:29.391Z,3.97
2019-04-10T16:19:59.781Z,3.90
2019-04-10T16:22:35.263Z,4.10
2019-04-10T16:25:11.635Z,3.70
2019-04-10T16:27:41.588Z,4.67
2019-04-10T16:30:14.448Z,4.50
2019-04-10T16:32:44.783Z,4.30
2019-04-10T16:35:15.730Z,3.70
2019-04-10T16:37:45.886Z,3.90
2019-04-10T16:40:18.543Z,4.20
2019-04-10T16:42:48.784Z,4.30
2019-04-10T16:45:18.647Z,4.30
2019-04-10T16:47:50.926Z,4.30
2019-04-10T16:50:21.563Z,3.70
2019-04-10T16:52:53.570Z,4.00
2019-04-10T16:55:24.796Z,4.90
2019-04-10T16:57:55.686Z,5.33
2019-04-10T17:00:26.922Z,4.83
2019-04-10T17:02:57.488Z,4.50
2019-04-10T17:05:28.207Z,4.57
2019-04-10T17:07:59.315Z,4.50
2019-04-10T17:10:30.328Z,4.20
2019-04-10T17:13:00.296Z,4.20
2019-04-10T17:15:30.247Z,4.80
2019-04-10T17:18:00.960Z,4.17
2019-04-10T17:20:31.042Z,4.40
2019-04-10T17:23:02.440Z,4.67
2019-04-10T17:25:33.989Z,5.07
2019-04-10T17:28:04.495Z,4.33
2019-04-10T17:30:34.216Z,4.90
2019-04-10T17:33:04.830Z,4.40
2019-04-10T17:35:37.986Z,4.87
2019-04-10T17:38:07.593Z,5.20
2019-04-10T17:40:45.828Z,4.50
2019-04-10T17:43:08.749Z,4.53
2019-04-10T17:45:38.812Z,4.63
2019-04-10T17:48:09.512Z,4.43
2019-04-10T17:50:41.679Z,4.70
2019-04-10T17:53:11.631Z,4.93
2019-04-10T17:55:44.046Z,5.40
2019-04-10T17:58:13.923Z,4.90
2019-04-10T18:00:45.655Z,4.97
2019-04-10T18:03:18.401Z,5.63
2019-04-10T18:05:46.878Z,5.50
2019-04-10T18:08:16.780Z,4.97
2019-04-10T18:10:52.638Z,4.97
2019-04-10T18:13:20.919Z,5.33
2019-04-10T18:15:50.659Z,4.57
2019-04-10T18:18:20.242Z,3.97
2019-04-10T18:20:51.040Z,5.07
2019-04-10T18:23:20.633Z,6.00
2019-04-10T18:25:50.226Z,4.50
2019-04-10T18:28:19.804Z,5.10
2019-04-10T18:30:49.865Z,4.63
2019-04-10T18:33:24.562Z,6.70
2019-04-10T18:35:55.346Z,4.30
2019-04-10T18:38:25.802Z,4.70
2019-04-10T18:41:01.995Z,5.07
2019-04-10T18:43:28.317Z,4.70
2019-04-10T18:46:08.824Z,4.40
2019-04-10T18:48:30.401Z,5.20
2019-04-10T18:51:01.475Z,4.40
2019-04-10T18:53:31.180Z,4.50
2019-04-10T18:56:00.853Z,3.90
2019-04-10T18:58:32.002Z,5.00
2019-04-10T19:01:03.314Z,4.63
2019-04-10T19:03:46.270Z,4.27
2019-04-10T19:06:12.056Z,4.03
2019-04-10T19:08:42.246Z,4.30
2019-04-10T19:11:20.948Z,4.43
2019-04-10T19:13:43.122Z,4.60
2019-04-10T19:16:13.723Z,4.23
2019-04-10T19:18:47.892Z,4.30
2019-04-10T19:21:17.939Z,4.93
2019-04-10T19:23:47.913Z,4.27
2019-04-10T19:26:19.178Z,4.17
2019-04-10T19:28:48.871Z,4.50
2019-04-10T19:31:23.019Z,4.73
2019-04-10T19:33:51.782Z,4.20
2019-04-10T19:36:21.362Z,4.00
2019-04-10T19:38:51.761Z,4.10
2019-04-10T19:41:28.049Z,4.10
2019-04-10T19:43:52.749Z,4.43
2019-04-10T19:46:23.726Z,5.00
2019-04-10T19:48:53.988Z,4.77
2019-04-10T19:51:24.000Z,4.87
2019-04-10T19:53:53.532Z,5.00
2019-04-10T19:56:23.154Z,3.83
2019-04-10T19:58:52.700Z,4.53
2019-04-10T20:01:24.532Z,5.17
2019-04-10T20:03:54.235Z,4.30
2019-04-10T20:06:25.224Z,4.47
2019-04-10T20:08:55.787Z,4.30
2019-04-10T20:11:33.898Z,4.17
2019-04-10T20:13:59.991Z,4.50
2019-04-10T20:16:28.533Z,4.50
2019-04-10T20:18:59.197Z,4.20
2019-04-10T20:21:30.012Z,4.20
2019-04-10T20:24:00.595Z,4.43
2019-04-10T20:26:31.500Z,4.43
2019-04-10T20:29:02.340Z,4.70
2019-04-10T20:31:33.885Z,4.90
2019-04-10T20:34:03.667Z,5.13
2019-04-10T20:36:33.612Z,4.77
2019-04-10T20:39:03.802Z,4.20
2019-04-10T20:41:46.082Z,4.37
2019-04-10T20:44:07.206Z,5.03
2019-04-10T20:46:38.217Z,4.70
2019-04-10T20:49:08.523Z,5.07
2019-04-10T20:51:38.502Z,4.60
2019-04-10T20:54:08.626Z,5.47
2019-04-10T20:56:40.951Z,4.90
2019-04-10T20:59:10.075Z,4.73
2019-04-10T21:01:39.613Z,4.33
2019-04-10T21:04:09.473Z,4.97
2019-04-10T21:06:41.827Z,4.83
2019-04-10T21:09:11.729Z,4.40
2019-04-10T21:11:41.886Z,5.50
2019-04-10T21:14:12.609Z,5.20
2019-04-10T21:16:44.212Z,4.50
2019-04-10T21:19:13.910Z,4.67
2019-04-10T21:21:43.591Z,5.63
2019-04-10T21:24:13.423Z,5.33
2019-04-10T21:26:44.875Z,5.20
2019-04-10T21:29:16.363Z,5.40
2019-04-10T21:31:59.717Z,5.87
2019-04-10T21:34:31.049Z,5.30
2019-04-10T21:37:01.677Z,5.50
2019-04-10T21:39:31.838Z,5.70
2019-04-10T21:42:11.980Z,5.80
2019-04-10T21:44:33.215Z,4.87
2019-04-10T21:47:05.420Z,5.10
2019-04-10T21:49:36.008Z,5.30
2019-04-10T21:52:05.892Z,5.10
2019-04-10T21:54:35.440Z,5.20
2019-04-10T21:57:05.417Z,5.47
2019-04-10T21:59:35.048Z,6.03
2019-04-10T22:02:04.945Z,5.33
2019-04-10T22:04:35.050Z,5.83
2019-04-10T22:07:23.701Z,5.30
2019-04-10T22:10:12.018Z,5.40
2019-04-10T22:12:47.132Z,5.70
2019-04-10T22:15:15.254Z,5.63
2019-04-10T22:17:44.830Z,5.60
2019-04-10T22:20:15.165Z,5.60
2019-04-10T22:22:45.061Z,6.50
2019-04-10T22:25:15.171Z,5.00
2019-04-10T22:27:46.351Z,6.03
2019-04-10T22:30:16.912Z,5.90
2019-04-10T22:32:47.136Z,5.60
2019-04-10T22:35:17.477Z,5.50
2019-04-10T22:37:48.248Z,5.60
2019-04-10T22:40:17.851Z,5.70
2019-04-10T22:42:48.637Z,5.67
2019-04-10T22:45:29.230Z,5.40
2019-04-10T22:48:00.748Z,5.67
2019-04-10T22:50:31.174Z,5.17
2019-04-10T22:53:01.374Z,5.30
2019-04-10T22:55:31.797Z,6.10
2019-04-10T22:58:02.555Z,5.67
2019-04-10T23:00:33.001Z,5.50
2019-04-10T23:03:03.438Z,5.30
2019-04-10T23:05:34.318Z,5.93
2019-04-10T23:08:04.154Z,4.93
2019-04-10T23:10:33.821Z,5.20
2019-04-10T23:13:05.580Z,5.13
2019-04-10T23:15:35.655Z,5.40
2019-04-10T23:18:07.462Z,5.53
2019-04-10T23:20:37.341Z,5.47
2019-04-10T23:23:06.936Z,5.60
2019-04-10T23:25:36.584Z,6.03
2019-04-10T23:28:07.325Z,5.63
2019-04-10T23:30:37.316Z,5.60
2019-04-10T23:33:07.947Z,5.47
2019-04-10T23:35:37.974Z,6.07
2019-04-10T23:38:09.152Z,5.37
2019-04-10T23:40:38.987Z,5.67
2019-04-10T23:43:13.519Z,5.40
2019-04-10T23:45:39.836Z,6.73
2019-04-10T23:48:09.380Z,5.20
2019-04-10T23:50:38.902Z,5.33
2019-04-10T23:53:08.668Z,5.10
2019-04-10T23:55:38.542Z,4.60
2019-04-10T23:58:08.056Z,4.20
